Time;durP1;ratioP1;P1;durP2;ratioP2;P2;SDS_P1;SDS_P2;PMS_P1;PMS_P2;Temp;Humidity;BMP_temperature;BMP_pressure;BME280_temperature;BME280_humidity;BME280_pressure;Samples;Min_cycle;Max_cycle;Signal;HPM_P1;HPM_P2
2022/06/29 00:00:03;;;;;;;;;;;19.90;58.70;;;;;;5134794;27;20358;-39
2022/06/29 00:02:28;;;;;;;;;;;19.90;58.70;;;;;;5134374;27;19932;-39
2022/06/29 00:04:54;;;;;;;;;;;19.90;58.70;;;;;;5134243;27;19907;-39
2022/06/29 00:07:19;;;;;;;;;;;19.90;58.80;;;;;;5134196;27;20365;-40
2022/06/29 00:09:45;;;;;;;;;;;19.90;58.70;;;;;;5134240;27;19957;-40
2022/06/29 00:12:10;;;;;;;;;;;19.90;58.80;;;;;;5134231;27;19912;-39
2022/06/29 00:14:41;;;;;;;;;;;19.90;58.80;;;;;;5134632;27;19904;-36
2022/06/29 00:17:10;;;;;;;;;;;19.90;58.80;;;;;;5134819;27;20021;-39
2022/06/29 00:19:36;;;;;;;;;;;19.90;58.80;;;;;;5134407;27;19982;-39
2022/06/29 00:22:02;;;;;;;;;;;19.90;58.70;;;;;;5134165;27;19938;-40
2022/06/29 00:24:27;;;;;;;;;;;19.90;58.70;;;;;;5133576;28;19904;-39
2022/06/29 00:26:53;;;;;;;;;;;19.90;58.80;;;;;;5134064;27;19961;-39
2022/06/29 00:29:18;;;;;;;;;;;19.90;58.90;;;;;;5134226;27;20401;-39
2022/06/29 00:31:44;;;;;;;;;;;19.80;58.90;;;;;;5134613;27;19903;-39
2022/06/29 00:34:10;;;;;;;;;;;19.80;58.90;;;;;;5134154;27;19904;-39
2022/06/29 00:36:35;;;;;;;;;;;19.80;58.90;;;;;;5137724;27;19903;-39
2022/06/29 00:39:00;;;;;;;;;;;19.70;58.90;;;;;;5137858;27;20035;-39
2022/06/29 00:41:26;;;;;;;;;;;19.70;58.90;;;;;;5137773;27;20294;-39
2022/06/29 00:43:51;;;;;;;;;;;19.70;59.00;;;;;;5137987;27;20006;-39
2022/06/29 00:46:17;;;;;;;;;;;19.70;59.10;;;;;;5138121;27;19911;-39
2022/06/29 00:48:42;;;;;;;;;;;19.70;59.00;;;;;;5136297;27;20387;-38
2022/06/29 00:51:10;;;;;;;;;;;19.70;59.00;;;;;;5137878;27;19941;-39
2022/06/29 00:53:37;;;;;;;;;;;19.70;59.10;;;;;;5137940;27;20366;-39
2022/06/29 00:56:04;;;;;;;;;;;19.60;59.00;;;;;;5137764;27;19903;-40
2022/06/29 00:58:30;;;;;;;;;;;19.70;59.10;;;;;;5137928;27;20390;-39
2022/06/29 01:01:01;;;;;;;;;;;19.70;59.10;;;;;;5137385;27;20032;-41
2022/06/29 01:03:27;;;;;;;;;;;19.60;59.10;;;;;;5137305;27;19912;-40
2022/06/29 01:05:52;;;;;;;;;;;19.60;59.20;;;;;;5137310;27;19951;-39
2022/06/29 01:08:18;;;;;;;;;;;19.50;59.30;;;;;;5137247;27;20274;-39
2022/06/29 01:10:43;;;;;;;;;;;19.50;59.40;;;;;;5137799;27;19956;-39
2022/06/29 01:13:10;;;;;;;;;;;19.50;59.40;;;;;;5137228;27;19948;-39
2022/06/29 01:15:35;;;;;;;;;;;19.40;59.50;;;;;;5137249;27;19903;-40
2022/06/29 01:18:01;;;;;;;;;;;19.40;59.50;;;;;;5137351;27;19903;-39
2022/06/29 01:20:26;;;;;;;;;;;19.30;59.60;;;;;;5137336;27;19994;-39
2022/06/29 01:22:52;;;;;;;;;;;19.30;59.70;;;;;;5137050;27;19925;-42
2022/06/29 01:25:17;;;;;;;;;;;19.20;59.70;;;;;;5136964;27;19971;-39
2022/06/29 01:27:43;;;;;;;;;;;19.20;59.80;;;;;;5136741;27;19907;-39
2022/06/29 01:30:09;;;;;;;;;;;19.20;59.90;;;;;;5137101;27;19911;-39
2022/06/29 01:32:38;;;;;;;;;;;19.10;59.90;;;;;;5136814;27;19953;-39
2022/06/29 01:35:05;;;;;;;;;;;19.10;60.00;;;;;;5135490;27;19904;-39
2022/06/29 01:37:30;;;;;;;;;;;19.00;60.00;;;;;;5136957;27;19907;-39
2022/06/29 01:39:55;;;;;;;;;;;19.00;60.70;;;;;;5136628;27;20404;-40
2022/06/29 01:42:21;;;;;;;;;;;19.00;60.10;;;;;;5136873;27;19911;-42
2022/06/29 01:44:46;;;;;;;;;;;19.00;60.20;;;;;;5135367;27;19947;-40
2022/06/29 01:47:12;;;;;;;;;;;18.90;60.20;;;;;;5135612;27;19903;-40
2022/06/29 01:49:37;;;;;;;;;;;18.90;60.30;;;;;;5136818;27;19990;-38
2022/06/29 01:52:03;;;;;;;;;;;18.90;60.30;;;;;;5136533;27;19903;-40
2022/06/29 01:54:28;;;;;;;;;;;18.90;60.30;;;;;;5136386;27;19934;-40
2022/06/29 01:56:54;;;;;;;;;;;18.80;60.30;;;;;;5136616;27;19903;-41
2022/06/29 01:59:19;;;;;;;;;;;18.80;60.40;;;;;;5136635;27;20361;-40
2022/06/29 02:01:47;;;;;;;;;;;18.80;60.40;;;;;;5134936;27;19915;-41
2022/06/29 02:04:12;;;;;;;;;;;18.80;60.50;;;;;;5136645;27;19933;-40
2022/06/29 02:06:39;;;;;;;;;;;18.70;60.50;;;;;;5136082;27;19969;-41
2022/06/29 02:09:04;;;;;;;;;;;18.70;60.60;;;;;;5136061;27;19907;-39
2022/06/29 02:11:30;;;;;;;;;;;18.70;60.60;;;;;;5135995;27;19903;-46
2022/06/29 02:13:55;;;;;;;;;;;18.60;60.60;;;;;;5136317;27;19975;-40
2022/06/29 02:16:21;;;;;;;;;;;18.60;60.70;;;;;;5136215;27;19903;-39
2022/06/29 02:18:46;;;;;;;;;;;18.60;60.80;;;;;;5136043;27;20370;-39
2022/06/29 02:21:12;;;;;;;;;;;18.60;60.80;;;;;;5135875;27;19910;-40
2022/06/29 02:23:38;;;;;;;;;;;18.60;60.90;;;;;;5135784;27;20117;-39
2022/06/29 02:26:03;;;;;;;;;;;18.50;60.90;;;;;;5135956;27;19903;-39
2022/06/29 02:28:29;;;;;;;;;;;18.50;61.00;;;;;;5134335;27;20431;-39
2022/06/29 02:36:22;;;;;;;;;;;18.40;61.00;;;;;;5135541;27;19910;-40
2022/06/29 02:38:48;;;;;;;;;;;18.40;61.10;;;;;;5135486;27;19904;-39
2022/06/29 02:41:13;;;;;;;;;;;18.40;61.10;;;;;;5135484;27;20351;-40
2022/06/29 02:43:39;;;;;;;;;;;18.40;61.20;;;;;;5135870;27;20047;-39
2022/06/29 02:46:04;;;;;;;;;;;18.40;61.20;;;;;;5135669;27;19952;-39
2022/06/29 02:48:29;;;;;;;;;;;18.40;61.30;;;;;;5135182;27;19907;-38
2022/06/29 02:50:55;;;;;;;;;;;18.30;61.30;;;;;;5135516;27;20351;-40
2022/06/29 02:53:20;;;;;;;;;;;18.30;61.40;;;;;;5135420;27;20370;-39
2022/06/29 02:55:46;;;;;;;;;;;18.30;61.40;;;;;;5135143;27;19957;-39
2022/06/29 02:58:11;;;;;;;;;;;18.30;61.40;;;;;;5134889;27;19904;-39
2022/06/29 03:00:37;;;;;;;;;;;18.30;61.50;;;;;;5134965;27;19994;-39
2022/06/29 03:03:02;;;;;;;;;;;18.20;61.50;;;;;;5134838;27;20294;-40
2022/06/29 03:05:28;;;;;;;;;;;18.20;61.70;;;;;;5135028;27;20428;-38
2022/06/29 03:07:53;;;;;;;;;;;18.10;61.70;;;;;;5134859;27;20359;-39
2022/06/29 03:10:19;;;;;;;;;;;18.10;61.80;;;;;;5135164;27;20018;-39
2022/06/29 03:12:44;;;;;;;;;;;18.10;61.80;;;;;;5135025;27;20068;-39
2022/06/29 03:15:10;;;;;;;;;;;18.10;61.90;;;;;;5135189;27;19907;-39
2022/06/29 03:17:35;;;;;;;;;;;18.00;61.80;;;;;;5135108;27;19907;-39
2022/06/29 03:20:04;;;;;;;;;;;18.00;61.90;;;;;;5134675;27;19998;-39
2022/06/29 03:22:30;;;;;;;;;;;18.00;62.00;;;;;;5134656;27;19907;-38
2022/06/29 03:24:56;;;;;;;;;;;18.00;62.00;;;;;;5135295;27;19911;-39
2022/06/29 03:27:21;;;;;;;;;;;18.00;62.10;;;;;;5134810;27;19911;-39
2022/06/29 03:29:46;;;;;;;;;;;18.00;62.10;;;;;;5133323;27;20362;-40
2022/06/29 03:32:12;;;;;;;;;;;18.00;62.20;;;;;;5134540;27;19998;-40
2022/06/29 03:34:37;;;;;;;;;;;17.90;62.10;;;;;;5135225;27;19907;-39
2022/06/29 03:37:03;;;;;;;;;;;17.90;62.20;;;;;;5135011;27;19957;-39
2022/06/29 03:39:28;;;;;;;;;;;17.90;62.30;;;;;;5134964;27;19954;-39
2022/06/29 03:41:54;;;;;;;;;;;17.90;62.30;;;;;;5134483;27;19907;-40
2022/06/29 03:44:19;;;;;;;;;;;17.80;62.30;;;;;;5134350;27;19907;-42
2022/06/29 03:46:45;;;;;;;;;;;17.80;62.30;;;;;;5134405;27;19930;-40
2022/06/29 03:49:10;;;;;;;;;;;17.80;62.30;;;;;;5134462;27;19963;-39
2022/06/29 03:51:36;;;;;;;;;;;17.90;62.50;;;;;;5134725;27;19907;-40
2022/06/29 03:54:01;;;;;;;;;;;17.80;62.40;;;;;;5134320;27;19922;-40
2022/06/29 03:56:28;;;;;;;;;;;17.80;62.40;;;;;;5134520;27;20010;-39
2022/06/29 03:58:53;;;;;;;;;;;17.80;62.50;;;;;;5134278;27;19907;-40
2022/06/29 04:01:19;;;;;;;;;;;17.90;62.50;;;;;;5134248;27;19960;-39
2022/06/29 04:03:44;;;;;;;;;;;17.80;62.50;;;;;;5134019;27;20332;-39
2022/06/29 04:06:10;;;;;;;;;;;17.80;62.50;;;;;;5132885;27;19907;-39
2022/06/29 04:08:37;;;;;;;;;;;17.90;62.60;;;;;;5134072;27;20285;-39
2022/06/29 04:11:03;;;;;;;;;;;17.90;62.50;;;;;;5136959;27;19911;-38
2022/06/29 04:13:28;;;;;;;;;;;17.90;62.50;;;;;;5138533;27;19954;-38
2022/06/29 04:15:54;;;;;;;;;;;17.90;62.50;;;;;;5138169;27;20208;-40
2022/06/29 04:18:19;;;;;;;;;;;17.90;62.50;;;;;;5138233;27;19956;-40
2022/06/29 04:23:29;;;;;;;;;;;18.00;62.60;;;;;;5138438;27;19914;-39
2022/06/29 04:25:54;;;;;;;;;;;18.00;62.50;;;;;;5138220;27;19908;-41
2022/06/29 04:28:20;;;;;;;;;;;18.00;62.50;;;;;;5138159;27;20005;-40
2022/06/29 04:30:45;;;;;;;;;;;18.00;62.50;;;;;;5138167;27;20062;-40
2022/06/29 04:33:11;;;;;;;;;;;18.00;62.50;;;;;;5137889;27;19915;-40
2022/06/29 04:35:36;;;;;;;;;;;18.10;62.50;;;;;;5137883;27;19914;-40
2022/06/29 04:38:02;;;;;;;;;;;18.10;62.50;;;;;;5137793;27;19914;-40
2022/06/29 04:40:28;;;;;;;;;;;18.10;62.50;;;;;;5138131;27;19947;-39
2022/06/29 04:42:53;;;;;;;;;;;18.10;62.50;;;;;;5138138;27;19911;-40
2022/06/29 04:48:02;;;;;;;;;;;18.10;62.50;;;;;;5138210;27;20305;-40
2022/06/29 04:50:29;;;;;;;;;;;18.10;62.50;;;;;;5137619;27;19915;-39
2022/06/29 04:52:54;;;;;;;;;;;18.20;62.50;;;;;;5137674;27;20426;-38
2022/06/29 04:55:20;;;;;;;;;;;18.20;62.50;;;;;;5137713;27;19954;-39
2022/06/29 04:57:46;;;;;;;;;;;18.20;62.50;;;;;;5137784;27;19907;-39
2022/06/29 05:00:12;;;;;;;;;;;18.20;62.50;;;;;;5137366;27;20397;-39
2022/06/29 05:02:37;;;;;;;;;;;18.20;62.50;;;;;;5137204;27;20006;-40
2022/06/29 05:05:03;;;;;;;;;;;18.30;62.50;;;;;;5137397;27;19911;-40
2022/06/29 05:07:28;;;;;;;;;;;18.30;62.50;;;;;;5137496;27;19918;-39
2022/06/29 05:09:54;;;;;;;;;;;18.30;62.40;;;;;;5137301;27;20286;-40
2022/06/29 05:12:19;;;;;;;;;;;18.40;62.50;;;;;;5137593;27;19908;-40
2022/06/29 05:14:45;;;;;;;;;;;18.40;62.40;;;;;;5137346;27;19907;-40
2022/06/29 05:17:10;;;;;;;;;;;18.40;62.40;;;;;;5137665;27;19908;-39
2022/06/29 05:19:36;;;;;;;;;;;18.40;62.40;;;;;;5137511;27;20378;-40
2022/06/29 05:22:01;;;;;;;;;;;18.40;62.40;;;;;;5136965;27;19908;-40
2022/06/29 05:24:27;;;;;;;;;;;18.50;62.40;;;;;;5137169;27;19907;-41
2022/06/29 05:26:52;;;;;;;;;;;18.50;62.40;;;;;;5136982;27;20267;-40
2022/06/29 05:29:18;;;;;;;;;;;18.50;62.40;;;;;;5136906;27;19922;-39
2022/06/29 05:31:44;;;;;;;;;;;18.60;62.40;;;;;;5136841;27;19928;-38
2022/06/29 05:34:09;;;;;;;;;;;18.60;62.30;;;;;;5136704;27;19907;-40
2022/06/29 05:36:35;;;;;;;;;;;18.70;62.30;;;;;;5135770;27;20358;-39
2022/06/29 05:39:00;;;;;;;;;;;18.70;62.30;;;;;;5135566;27;19907;-40
2022/06/29 05:41:26;;;;;;;;;;;18.70;62.20;;;;;;5136835;27;19914;-40
2022/06/29 05:43:51;;;;;;;;;;;18.80;62.20;;;;;;5136776;27;19921;-40
2022/06/29 05:46:18;;;;;;;;;;;18.80;62.10;;;;;;5136837;27;20077;-40
2022/06/29 05:48:44;;;;;;;;;;;18.90;62.10;;;;;;5136800;27;20068;-40
2022/06/29 05:51:10;;;;;;;;;;;18.90;62.10;;;;;;5136440;27;19954;-41
2022/06/29 05:53:35;;;;;;;;;;;19.00;62.00;;;;;;5136678;27;19908;-39
2022/06/29 05:56:01;;;;;;;;;;;19.10;62.00;;;;;;5136399;27;19946;-40
2022/06/29 05:58:26;;;;;;;;;;;19.10;62.00;;;;;;5136279;27;19908;-39
2022/06/29 06:00:52;;;;;;;;;;;19.10;61.90;;;;;;5136011;27;19957;-40
2022/06/29 06:03:18;;;;;;;;;;;19.20;62.00;;;;;;5136146;27;19919;-40
2022/06/29 06:05:44;;;;;;;;;;;19.30;61.90;;;;;;5136107;27;19904;-40
2022/06/29 06:08:09;;;;;;;;;;;19.30;62.40;;;;;;5136210;27;19960;-40
2022/06/29 06:10:35;;;;;;;;;;;19.40;61.90;;;;;;5136691;27;19911;-41
2022/06/29 06:13:02;;;;;;;;;;;19.40;61.70;;;;;;5136313;27;19938;-40
2022/06/29 06:15:27;;;;;;;;;;;19.50;61.70;;;;;;5136165;27;19911;-37
2022/06/29 06:17:53;;;;;;;;;;;19.50;61.60;;;;;;5135831;27;20239;-40
2022/06/29 06:20:18;;;;;;;;;;;19.60;61.60;;;;;;5135896;27;19919;-40
2022/06/29 06:22:44;;;;;;;;;;;19.60;61.50;;;;;;5135867;27;19903;-41
2022/06/29 06:25:09;;;;;;;;;;;19.70;61.50;;;;;;5135637;27;20275;-40
2022/06/29 06:27:35;;;;;;;;;;;19.70;61.50;;;;;;5135549;27;19907;-39
2022/06/29 06:30:00;;;;;;;;;;;19.70;61.40;;;;;;5135780;27;19960;-40
2022/06/29 06:32:26;;;;;;;;;;;19.80;61.40;;;;;;5135072;27;19904;-42
2022/06/29 06:34:51;;;;;;;;;;;19.80;61.30;;;;;;5135585;27;19950;-40
2022/06/29 06:37:16;;;;;;;;;;;19.90;61.30;;;;;;5135362;27;20331;-39
2022/06/29 06:41:21;;;;;;;;;;;20.00;61.30;;;;;;5135318;27;19926;-39
2022/06/29 06:42:28;;;;;;;;;;;20.00;61.30;;;;;;5135049;27;20447;-38
2022/06/29 06:44:53;;;;;;;;;;;20.10;61.30;;;;;;5135025;27;19911;-39
2022/06/29 06:47:19;;;;;;;;;;;20.10;61.20;;;;;;5135282;27;19903;-40
2022/06/29 06:49:44;;;;;;;;;;;20.20;61.10;;;;;;5135056;27;19903;-40
2022/06/29 06:52:09;;;;;;;;;;;20.30;61.10;;;;;;5135110;27;19904;-40
2022/06/29 06:54:35;;;;;;;;;;;20.30;61.00;;;;;;5134890;27;19904;-41
2022/06/29 06:57:00;;;;;;;;;;;20.40;60.90;;;;;;5134838;27;20274;-47
2022/06/29 06:59:26;;;;;;;;;;;20.50;60.90;;;;;;5134921;27;19903;-40
2022/06/29 07:01:51;;;;;;;;;;;20.60;60.80;;;;;;5134829;27;19908;-39
2022/06/29 07:04:17;;;;;;;;;;;20.60;60.70;;;;;;5135020;27;19998;-40
2022/06/29 07:06:42;;;;;;;;;;;20.60;60.70;;;;;;5133525;27;19911;-41
2022/06/29 07:09:08;;;;;;;;;;;20.70;60.70;;;;;;5134970;27;19919;-40
2022/06/29 07:11:33;;;;;;;;;;;20.70;60.80;;;;;;5134987;27;19903;-40
2022/06/29 07:13:59;;;;;;;;;;;20.60;60.80;;;;;;5134853;27;19903;-39
2022/06/29 07:16:24;;;;;;;;;;;20.70;60.90;;;;;;5134496;27;19939;-40
2022/06/29 07:18:50;;;;;;;;;;;20.70;60.90;;;;;;5134772;27;20422;-39
2022/06/29 07:21:15;;;;;;;;;;;20.70;60.80;;;;;;5135054;27;20338;-40
2022/06/29 07:23:41;;;;;;;;;;;20.80;60.90;;;;;;5134733;27;20010;-40
2022/06/29 07:26:06;;;;;;;;;;;20.80;60.90;;;;;;5134440;27;20351;-40
2022/06/29 07:28:32;;;;;;;;;;;20.90;60.80;;;;;;5134497;27;19952;-39
2022/06/29 07:30:57;;;;;;;;;;;20.90;60.80;;;;;;5134385;27;20440;-40
2022/06/29 07:33:23;;;;;;;;;;;20.90;60.70;;;;;;5134277;27;20386;-40
2022/06/29 07:35:48;;;;;;;;;;;21.00;60.70;;;;;;5134276;27;19926;-41
2022/06/29 07:38:14;;;;;;;;;;;21.10;60.70;;;;;;5134268;27;19910;-40
2022/06/29 07:40:39;;;;;;;;;;;21.10;60.60;;;;;;5134365;27;19913;-39
2022/06/29 07:43:05;;;;;;;;;;;21.30;60.50;;;;;;5134614;27;19903;-40
2022/06/29 07:45:31;;;;;;;;;;;21.30;60.50;;;;;;5133344;27;19904;-41
2022/06/29 07:47:56;;;;;;;;;;;21.40;60.30;;;;;;5134552;27;19961;-40
2022/06/29 07:50:22;;;;;;;;;;;21.50;60.30;;;;;;5134308;27;19910;-40
2022/06/29 07:52:47;;;;;;;;;;;21.60;60.20;;;;;;5134123;27;20359;-40
2022/06/29 07:55:12;;;;;;;;;;;21.60;60.10;;;;;;5134538;27;19961;-40
2022/06/29 07:57:38;;;;;;;;;;;21.70;60.10;;;;;;5134217;27;19960;-40
2022/06/29 08:00:04;;;;;;;;;;;21.80;60.00;;;;;;5134124;27;20274;-40
2022/06/29 08:02:30;;;;;;;;;;;21.90;60.00;;;;;;5133910;27;20040;-39
2022/06/29 08:04:55;;;;;;;;;;;22.00;59.80;;;;;;5133999;27;19972;-40
2022/06/29 08:07:21;;;;;;;;;;;22.10;59.70;;;;;;5134195;27;19987;-40
2022/06/29 08:09:46;;;;;;;;;;;22.20;59.60;;;;;;5133978;27;19998;-40
2022/06/29 08:12:12;;;;;;;;;;;22.30;59.50;;;;;;5134107;27;20389;-39
2022/06/29 08:14:37;;;;;;;;;;;22.40;59.40;;;;;;5133934;27;19904;-38
2022/06/29 08:17:03;;;;;;;;;;;22.50;59.30;;;;;;5133943;27;19909;-39
2022/06/29 08:19:28;;;;;;;;;;;22.50;59.30;;;;;;5134179;27;19907;-38
2022/06/29 08:21:54;;;;;;;;;;;22.50;59.20;;;;;;5134067;27;19932;-39
2022/06/29 08:24:19;;;;;;;;;;;22.60;59.20;;;;;;5134216;27;20322;-39
2022/06/29 08:26:45;;;;;;;;;;;22.70;59.10;;;;;;5133874;27;20314;-40
2022/06/29 08:29:11;;;;;;;;;;;22.70;59.00;;;;;;5134331;27;19907;-40
2022/06/29 08:31:36;;;;;;;;;;;22.80;59.00;;;;;;5134240;27;19903;-43
2022/06/29 08:34:05;;;;;;;;;;;22.90;58.90;;;;;;5133766;27;20426;-39
2022/06/29 08:36:30;;;;;;;;;;;23.00;58.70;;;;;;5133638;27;19910;-39
2022/06/29 08:38:55;;;;;;;;;;;23.10;58.60;;;;;;5133941;27;19907;-39
2022/06/29 08:41:21;;;;;;;;;;;23.20;59.00;;;;;;5133669;27;19907;-40
2022/06/29 08:43:46;;;;;;;;;;;23.30;58.30;;;;;;5133463;27;19991;-38
2022/06/29 08:46:15;;;;;;;;;;;23.40;58.20;;;;;;5133850;27;20383;-39
2022/06/29 08:48:40;;;;;;;;;;;23.50;58.20;;;;;;5133502;27;19911;-39
2022/06/29 08:51:06;;;;;;;;;;;23.60;58.10;;;;;;5133983;27;19953;-39
2022/06/29 08:53:32;;;;;;;;;;;23.60;58.00;;;;;;5133490;27;19907;-39
2022/06/29 08:55:59;;;;;;;;;;;23.80;58.00;;;;;;5133952;27;20305;-39
2022/06/29 08:58:25;;;;;;;;;;;23.80;57.80;;;;;;5135716;27;19998;-40
2022/06/29 09:00:51;;;;;;;;;;;23.90;57.70;;;;;;5137248;27;19929;-40
2022/06/29 09:03:18;;;;;;;;;;;24.00;57.70;;;;;;5136906;27;19960;-40
2022/06/29 09:05:48;;;;;;;;;;;24.10;57.60;;;;;;5136950;27;19911;-39
2022/06/29 09:08:14;;;;;;;;;;;24.10;57.50;;;;;;5136762;27;19907;-39
2022/06/29 09:10:39;;;;;;;;;;;24.20;57.40;;;;;;5137539;27;19910;-46
2022/06/29 09:13:05;;;;;;;;;;;24.30;57.20;;;;;;5136995;27;19910;-39
2022/06/29 09:15:31;;;;;;;;;;;24.30;57.10;;;;;;5136945;27;19999;-39
2022/06/29 09:17:56;;;;;;;;;;;24.40;57.10;;;;;;5137014;27;19917;-40
2022/06/29 09:20:22;;;;;;;;;;;24.50;57.10;;;;;;5136673;27;20358;-40
2022/06/29 09:22:55;;;;;;;;;;;24.50;57.50;;;;;;5136674;27;19903;-40
2022/06/29 09:25:21;;;;;;;;;;;24.60;56.70;;;;;;5136812;27;19911;-49
2022/06/29 09:27:47;;;;;;;;;;;24.70;56.60;;;;;;5136980;27;19907;-39
2022/06/29 09:30:23;;;;;;;;;;;24.80;56.60;;;;;;5136492;27;20320;-39
2022/06/29 09:32:57;;;;;;;;;;;24.80;56.50;;;;;;5136324;27;19903;-38
2022/06/29 09:35:23;;;;;;;;;;;24.90;56.40;;;;;;5135232;27;19904;-39
2022/06/29 09:37:48;;;;;;;;;;;25.00;56.30;;;;;;5136331;27;19910;-39
2022/06/29 09:40:14;;;;;;;;;;;25.00;56.20;;;;;;5136416;27;19904;-39
2022/06/29 09:42:40;;;;;;;;;;;25.00;55.90;;;;;;5136404;27;19903;-39
2022/06/29 09:45:06;;;;;;;;;;;25.10;55.80;;;;;;5136167;27;20301;-40
2022/06/29 09:47:32;;;;;;;;;;;25.20;55.90;;;;;;5136788;27;19911;-41
2022/06/29 09:50:01;;;;;;;;;;;25.20;55.50;;;;;;5136331;27;20300;-44
2022/06/29 09:52:26;;;;;;;;;;;25.40;55.50;;;;;;5136371;27;20251;-40
2022/06/29 09:54:54;;;;;;;;;;;25.40;55.10;;;;;;5136274;27;19949;-40
2022/06/29 09:57:20;;;;;;;;;;;25.50;54.90;;;;;;5136317;27;19904;-39
2022/06/29 10:02:34;;;;;;;;;;;25.70;54.70;;;;;;5135873;27;19910;-46
2022/06/29 10:05:05;;;;;;;;;;;25.80;54.30;;;;;;5136124;27;19904;-39
2022/06/29 10:07:32;;;;;;;;;;;25.70;54.20;;;;;;5135173;27;19953;-39
2022/06/29 10:09:58;;;;;;;;;;;25.90;54.10;;;;;;5135771;27;20350;-40
2022/06/29 10:15:32;;;;;;;;;;;26.10;54.10;;;;;;5135894;27;19914;-38
2022/06/29 10:18:04;;;;;;;;;;;26.10;53.90;;;;;;5135929;27;19903;-40
2022/06/29 10:20:34;;;;;;;;;;;26.20;53.40;;;;;;5135874;27;19903;-42
2022/06/29 10:23:00;;;;;;;;;;;26.30;53.10;;;;;;5135672;27;19961;-39
2022/06/29 10:25:28;;;;;;;;;;;26.20;52.90;;;;;;5135858;27;19904;-38
2022/06/29 10:28:20;;;;;;;;;;;26.20;53.00;;;;;;5135755;27;19960;-39
2022/06/29 10:30:46;;;;;;;;;;;26.20;52.90;;;;;;5134617;27;20270;-39
2022/06/29 10:33:31;;;;;;;;;;;26.20;52.90;;;;;;5135667;27;19904;-39
2022/06/29 10:36:03;;;;;;;;;;;26.20;52.80;;;;;;5135714;27;20362;-38
2022/06/29 10:38:29;;;;;;;;;;;26.30;52.80;;;;;;5135361;27;19907;-36
2022/06/29 10:41:10;;;;;;;;;;;26.40;52.50;;;;;;5135425;27;19907;-39
2022/06/29 10:43:38;;;;;;;;;;;26.50;52.10;;;;;;5135402;27;19945;-38
2022/06/29 10:46:04;;;;;;;;;;;26.60;52.10;;;;;;5135958;27;19951;-39
2022/06/29 10:48:31;;;;;;;;;;;26.80;51.80;;;;;;5134986;27;19908;-39
2022/06/29 10:50:57;;;;;;;;;;;27.00;51.30;;;;;;5133766;27;19903;-40
2022/06/29 10:53:22;;;;;;;;;;;27.30;51.10;;;;;;5135347;27;19911;-39
2022/06/29 10:55:49;;;;;;;;;;;27.40;50.60;;;;;;5134928;27;19959;-39
2022/06/29 10:58:15;;;;;;;;;;;27.50;50.10;;;;;;5135348;27;20251;-40
2022/06/29 11:00:41;;;;;;;;;;;27.40;49.80;;;;;;5134868;27;19924;-39
2022/06/29 11:03:14;;;;;;;;;;;27.40;49.60;;;;;;5134909;27;20282;-39
2022/06/29 11:13:55;;;;;;;;;;;27.10;49.10;;;;;;5134763;27;19951;-45
2022/06/29 11:16:26;;;;;;;;;;;27.10;48.20;;;;;;5134751;27;19903;-40
2022/06/29 11:18:56;;;;;;;;;;;27.10;48.40;;;;;;5134672;27;19948;-39
2022/06/29 11:21:21;;;;;;;;;;;27.10;48.40;;;;;;5134885;27;19904;-40
2022/06/29 11:23:53;;;;;;;;;;;27.10;48.30;;;;;;5134806;27;19954;-40
2022/06/29 11:26:21;;;;;;;;;;;27.20;48.20;;;;;;5134548;27;20308;-39
2022/06/29 11:28:47;;;;;;;;;;;27.20;47.40;;;;;;5134877;27;20326;-41
2022/06/29 11:31:13;;;;;;;;;;;27.20;47.80;;;;;;5134998;27;19986;-39
2022/06/29 11:33:42;;;;;;;;;;;27.20;47.80;;;;;;5133111;27;20044;-40
2022/06/29 11:36:18;;;;;;;;;;;27.20;47.60;;;;;;5134725;27;19917;-39
2022/06/29 11:38:45;;;;;;;;;;;27.30;47.70;;;;;;5134630;27;19903;-40
2022/06/29 11:41:11;;;;;;;;;;;27.40;47.90;;;;;;5134350;27;20408;-40
2022/06/29 11:43:36;;;;;;;;;;;27.40;47.30;;;;;;5134437;27;19903;-40
2022/06/29 11:46:02;;;;;;;;;;;27.50;47.20;;;;;;5134198;27;19911;-40
2022/06/29 11:48:28;;;;;;;;;;;27.50;47.10;;;;;;5133277;27;20005;-40
2022/06/29 11:50:56;;;;;;;;;;;27.50;47.20;;;;;;5134464;27;19917;-39
2022/06/29 11:53:37;;;;;;;;;;;27.60;47.40;;;;;;5134173;27;19903;-40
2022/06/29 11:56:10;;;;;;;;;;;27.60;47.30;;;;;;5134430;27;19910;-39
2022/06/29 11:58:37;;;;;;;;;;;27.70;47.20;;;;;;5134051;27;19904;-39
2022/06/29 12:01:06;;;;;;;;;;;27.70;47.00;;;;;;5134236;27;19904;-40
2022/06/29 12:03:31;;;;;;;;;;;27.70;47.00;;;;;;5133935;27;19976;-39
2022/06/29 12:05:57;;;;;;;;;;;27.80;47.10;;;;;;5134106;27;19998;-40
2022/06/29 12:08:23;;;;;;;;;;;27.80;47.10;;;;;;5133898;27;20362;-40
2022/06/29 12:10:49;;;;;;;;;;;28.00;47.20;;;;;;5134162;27;19914;-40
2022/06/29 12:13:14;;;;;;;;;;;28.00;47.10;;;;;;5133965;27;19952;-40
2022/06/29 12:15:40;;;;;;;;;;;27.90;47.20;;;;;;5133828;27;19950;-39
2022/06/29 12:18:06;;;;;;;;;;;28.00;47.50;;;;;;5133860;27;19907;-40
2022/06/29 12:20:31;;;;;;;;;;;28.00;47.40;;;;;;5133903;27;20259;-40
2022/06/29 12:22:56;;;;;;;;;;;28.10;47.30;;;;;;5132464;28;19904;-40
2022/06/29 12:25:22;;;;;;;;;;;28.10;47.20;;;;;;5133841;27;19910;-40
2022/06/29 12:27:48;;;;;;;;;;;28.10;47.20;;;;;;5133689;27;20406;-41
2022/06/29 12:30:14;;;;;;;;;;;28.20;47.20;;;;;;5134119;27;19903;-40
2022/06/29 12:32:39;;;;;;;;;;;28.30;47.20;;;;;;5136979;27;20342;-40
2022/06/29 12:35:05;;;;;;;;;;;28.50;47.00;;;;;;5138006;27;19907;-40
2022/06/29 12:37:31;;;;;;;;;;;28.70;46.90;;;;;;5137815;27;19926;-38
2022/06/29 12:39:56;;;;;;;;;;;28.70;46.60;;;;;;5137400;27;19903;-43
2022/06/29 12:42:22;;;;;;;;;;;28.70;46.40;;;;;;5137397;27;20387;-40
2022/06/29 12:44:47;;;;;;;;;;;28.80;46.60;;;;;;5137583;27;19903;-39
2022/06/29 12:47:13;;;;;;;;;;;28.80;46.70;;;;;;5137549;27;19905;-40
2022/06/29 12:49:39;;;;;;;;;;;28.80;46.90;;;;;;5137422;27;19911;-40
2022/06/29 12:52:04;;;;;;;;;;;28.80;47.00;;;;;;5137526;27;19904;-40
2022/06/29 12:54:30;;;;;;;;;;;28.80;47.00;;;;;;5137634;27;19914;-39
2022/06/29 12:56:55;;;;;;;;;;;28.90;46.70;;;;;;5137696;27;19907;-41
2022/06/29 12:59:21;;;;;;;;;;;28.90;46.70;;;;;;5136223;27;19907;-40
2022/06/29 13:01:47;;;;;;;;;;;29.00;46.80;;;;;;5137221;27;19930;-40
2022/06/29 13:04:13;;;;;;;;;;;29.20;46.60;;;;;;5137060;27;20018;-40
2022/06/29 13:06:39;;;;;;;;;;;29.30;46.50;;;;;;5137403;27;19966;-39
2022/06/29 13:09:05;;;;;;;;;;;29.50;46.30;;;;;;5137028;27;19908;-40
2022/06/29 13:11:30;;;;;;;;;;;29.70;46.00;;;;;;5137059;27;20372;-39
2022/06/29 13:13:56;;;;;;;;;;;29.80;45.90;;;;;;5137090;27;20002;-41
2022/06/29 13:16:21;;;;;;;;;;;29.90;45.70;;;;;;5136943;27;19910;-41
2022/06/29 13:18:47;;;;;;;;;;;30.00;45.60;;;;;;5136779;27;20373;-41
2022/06/29 13:21:12;;;;;;;;;;;30.20;45.30;;;;;;5136957;27;19911;-41
2022/06/29 13:23:38;;;;;;;;;;;30.20;45.20;;;;;;5137041;27;19914;-41
2022/06/29 13:26:04;;;;;;;;;;;30.20;45.30;;;;;;5136913;27;19910;-42
2022/06/29 13:28:29;;;;;;;;;;;30.20;45.40;;;;;;5136633;27;19914;-44
2022/06/29 13:30:55;;;;;;;;;;;30.20;45.40;;;;;;5136574;27;19914;-42
2022/06/29 13:33:20;;;;;;;;;;;30.20;45.50;;;;;;5136586;27;19903;-41
2022/06/29 13:35:47;;;;;;;;;;;30.00;45.60;;;;;;5136472;27;19911;-44
2022/06/29 13:38:13;;;;;;;;;;;29.90;45.70;;;;;;5136685;27;19938;-39
2022/06/29 13:40:39;;;;;;;;;;;29.90;45.70;;;;;;5136646;27;19952;-42
2022/06/29 13:43:04;;;;;;;;;;;29.80;45.80;;;;;;5136373;27;19910;-41
2022/06/29 13:45:31;;;;;;;;;;;29.80;45.70;;;;;;5136240;27;19904;-43
2022/06/29 13:47:56;;;;;;;;;;;29.80;45.70;;;;;;5136626;27;20389;-41
2022/06/29 13:50:22;;;;;;;;;;;29.70;45.90;;;;;;5136558;27;19907;-41
2022/06/29 13:52:47;;;;;;;;;;;29.70;46.00;;;;;;5136217;27;19960;-41
2022/06/29 13:55:13;;;;;;;;;;;29.70;46.10;;;;;;5136004;27;19903;-42
2022/06/29 13:57:40;;;;;;;;;;;29.70;46.10;;;;;;5135730;27;20368;-39
2022/06/29 14:00:06;;;;;;;;;;;29.70;46.10;;;;;;5136246;27;20401;-45
2022/06/29 14:02:33;;;;;;;;;;;29.80;46.20;;;;;;5136121;27;19907;-38
2022/06/29 14:04:59;;;;;;;;;;;29.80;45.80;;;;;;5136373;27;19908;-40
2022/06/29 14:07:24;;;;;;;;;;;29.90;45.60;;;;;;5136249;27;19904;-41
2022/06/29 14:09:50;;;;;;;;;;;30.00;45.70;;;;;;5136145;27;20004;-40
2022/06/29 14:12:15;;;;;;;;;;;29.90;45.80;;;;;;5136093;27;19998;-40
2022/06/29 14:14:41;;;;;;;;;;;29.80;45.80;;;;;;5136053;27;20270;-40
2022/06/29 14:17:06;;;;;;;;;;;29.70;46.00;;;;;;5136045;27;19911;-41
2022/06/29 14:19:32;;;;;;;;;;;29.70;46.80;;;;;;5134444;27;19904;-41
2022/06/29 14:22:00;;;;;;;;;;;29.60;46.20;;;;;;5136309;27;19903;-41
2022/06/29 14:24:27;;;;;;;;;;;29.60;46.00;;;;;;5135847;27;20010;-39
2022/06/29 14:26:53;;;;;;;;;;;29.50;45.80;;;;;;5136020;27;19903;-40
2022/06/29 14:29:19;;;;;;;;;;;29.50;45.70;;;;;;5135601;27;20285;-48
2022/06/29 14:31:44;;;;;;;;;;;29.30;45.70;;;;;;5135544;27;20369;-41
2022/06/29 14:34:09;;;;;;;;;;;29.40;45.80;;;;;;5135341;27;19942;-38